Time;durP1;ratioP1;P1;durP2;ratioP2;P2;SDS_P1;SDS_P2;PMS_P1;PMS_P2;Temp;Humidity;BMP_temperature;BMP_pressure;BME280_temperature;BME280_humidity;BME280_pressure;Samples;Min_cycle;Max_cycle;Signal;HPM_P1;HPM_P2
2023/09/13 00:01:33;;;;;;;13.13;11.75;;;;;;;23.09;62.09;98731.72;5065397;28;20041;-78
2023/09/13 00:04:00;;;;;;;13.35;12.02;;;;;;;23.08;61.43;98733.59;5066134;28;20319;-78
2023/09/13 00:06:27;;;;;;;13.93;12.52;;;;;;;22.99;61.95;98718.44;5066114;28;20074;-78
2023/09/13 00:08:54;;;;;;;12.35;11.13;;;;;;;23.09;62.29;98734.44;5065686;28;20055;-77
2023/09/13 00:11:22;;;;;;;16.10;12.65;;;;;;;22.62;63.13;98654.34;5066117;28;20055;-78
2023/09/13 00:13:49;;;;;;;12.95;11.63;;;;;;;23.03;61.62;98733.28;5066098;28;20056;-77
2023/09/13 00:16:15;;;;;;;16.13;12.02;;;;;;;23.02;61.28;98734.31;5065693;28;20370;-77
2023/09/13 00:18:42;;;;;;;11.93;10.82;;;;;;;22.98;61.36;98735.69;5066260;28;20194;-77
2023/09/13 00:21:10;;;;;;;11.95;10.75;;;;;;;22.95;60.84;98739.59;5065495;28;20244;-77
2023/09/13 00:23:37;;;;;;;12.45;11.00;;;;;;;22.94;60.53;98739.75;5065823;28;20036;-77
2023/09/13 00:26:04;;;;;;;12.10;10.90;;;;;;;22.92;61.08;98734.53;5065649;28;20063;-77
2023/09/13 00:28:32;;;;;;;13.05;11.55;;;;;;;22.87;61.84;98733.38;5065410;28;20110;-77
2023/09/13 00:30:58;;;;;;;11.52;10.45;;;;;;;22.88;61.60;98745.88;5065648;28;20051;-77
2023/09/13 00:33:25;;;;;;;12.25;11.13;;;;;;;22.85;61.29;98744.38;5065695;28;20048;-77
2023/09/13 00:35:56;;;;;;;12.77;11.45;;;;;;;22.82;61.20;98744.72;5065882;28;20090;-77
2023/09/13 00:38:22;;;;;;;13.15;11.50;;;;;;;22.82;60.41;98741.19;5064214;28;20083;-77
2023/09/13 00:40:49;;;;;;;17.42;11.02;;;;;;;22.80;60.88;98748.63;5064307;28;20098;-77
2023/09/13 00:43:16;;;;;;;12.98;11.18;;;;;;;22.82;61.87;98760.94;5065447;28;20055;-77
2023/09/13 00:45:46;;;;;;;11.90;10.70;;;;;;;22.76;61.73;98767.03;5064661;28;20053;-77
2023/09/13 00:48:13;;;;;;;12.82;11.55;;;;;;;22.69;62.76;98772.31;5065115;28;20309;-77
2023/09/13 00:50:41;;;;;;;13.20;11.93;;;;;;;22.63;62.61;98772.16;5065514;28;20247;-77
2023/09/13 00:53:09;;;;;;;14.45;12.20;;;;;;;22.63;62.35;98758.66;5064881;28;20040;-77
2023/09/13 00:55:37;;;;;;;13.27;11.82;;;;;;;22.65;62.99;98762.03;5065129;28;20257;-77
2023/09/13 00:58:06;;;;;;;12.80;11.02;;;;;;;22.58;62.32;98755.66;5088684;28;20212;-78
2023/09/13 01:00:33;;;;;;;13.45;12.15;;;;;;;22.60;61.50;98753.63;5105925;28;20043;-77
2023/09/13 01:03:02;;;;;;;13.65;12.00;;;;;;;22.61;61.60;98752.59;5105536;28;20048;-77
2023/09/13 01:05:29;;;;;;;12.80;11.15;;;;;;;22.31;61.75;98708.28;5106659;28;20363;-78
2023/09/13 01:07:56;;;;;;;15.48;11.82;;;;;;;22.52;62.04;98749.06;5108778;28;20040;-77
2023/09/13 01:10:23;;;;;;;13.35;11.80;;;;;;;22.53;61.50;98753.44;5109297;28;20052;-78
2023/09/13 01:12:50;;;;;;;13.15;11.85;;;;;;;22.56;61.66;98750.41;5109273;28;20043;-77
2023/09/13 01:15:16;;;;;;;12.73;11.52;;;;;;;22.52;62.38;98756.31;5109205;28;20051;-77
2023/09/13 01:17:50;;;;;;;12.88;11.57;;;;;;;22.49;61.44;98752.09;5109166;28;20044;-77
2023/09/13 01:20:30;;;;;;;12.55;11.30;;;;;;;22.50;62.02;98743.00;5109032;28;20086;-77
2023/09/13 01:23:22;;;;;;;13.68;11.43;;;;;;;22.46;61.68;98746.22;5108998;28;20055;-77
2023/09/13 01:26:09;;;;;;;13.57;11.88;;;;;;;22.42;62.13;98741.16;5109264;28;20119;-77
2023/09/13 01:28:40;;;;;;;14.90;13.48;;;;;;;22.44;63.12;98742.84;5107739;28;20040;-77
2023/09/13 01:31:10;;;;;;;15.73;11.90;;;;;;;22.37;62.39;98739.97;5109132;28;20090;-77
2023/09/13 01:33:37;;;;;;;14.13;12.52;;;;;;;22.12;61.92;98696.03;5109099;28;20062;-77
2023/09/13 01:36:04;;;;;;;12.88;11.57;;;;;;;21.98;61.94;98689.50;5109516;28;20051;-77
2023/09/13 01:38:33;;;;;;;12.60;11.32;;;;;;;21.77;62.49;98648.72;5108657;28;20081;-78
2023/09/13 01:41:08;;;;;;;12.65;11.43;;;;;;;22.36;62.23;98741.84;5108804;28;20089;-78
2023/09/13 01:43:40;;;;;;;12.65;11.35;;;;;;;22.35;62.09;98733.91;5108541;28;20081;-78
2023/09/13 01:46:07;;;;;;;12.25;11.05;;;;;;;22.33;62.09;98736.78;5107806;28;20118;-78
2023/09/13 01:48:37;;;;;;;12.52;11.27;;;;;;;22.03;61.73;98686.28;5108507;28;20302;-78
2023/09/13 01:51:06;;;;;;;12.65;11.43;;;;;;;22.17;62.30;98719.81;5108549;28;20050;-78
2023/09/13 01:53:33;;;;;;;13.65;10.00;;;;;;;22.28;63.07;98731.06;5108621;28;20048;-77
2023/09/13 01:56:00;;;;;;;12.95;11.60;;;;;;;22.24;62.60;98737.81;5107473;28;20040;-78
2023/09/13 01:58:27;;;;;;;11.98;10.85;;;;;;;22.26;63.03;98737.66;5107977;28;20055;-78
2023/09/13 02:00:55;;;;;;;12.82;11.63;;;;;;;22.21;63.60;98729.22;5108152;28;20101;-78
2023/09/13 02:03:21;;;;;;;11.02;9.93;;;;;;;22.22;62.67;98722.81;5107917;28;20043;-78
2023/09/13 02:05:48;;;;;;;13.90;12.50;;;;;;;21.36;63.26;98596.75;5107958;28;20044;-78
2023/09/13 02:08:15;;;;;;;13.35;12.15;;;;;;;21.87;62.95;98686.34;5108213;28;20056;-78
2023/09/13 02:10:42;;;;;;;12.77;11.13;;;;;;;22.16;62.89;98737.00;5107489;28;20113;-78
2023/09/13 02:13:08;;;;;;;12.63;11.27;;;;;;;22.16;62.71;98723.50;5107114;28;20036;-78
2023/09/13 02:15:39;;;;;;;13.00;11.85;;;;;;;22.18;62.47;98732.28;5107790;28;20047;-78
2023/09/13 02:18:08;;;;;;;12.60;11.40;;;;;;;22.15;63.34;98732.63;5107950;28;20044;-78
2023/09/13 02:20:35;;;;;;;13.43;12.23;;;;;;;22.12;63.25;98730.28;5107335;28;20040;-78
2023/09/13 02:23:01;;;;;;;19.52;12.20;;;;;;;22.06;63.24;98737.19;5107779;28;20044;-80
2023/09/13 02:25:28;;;;;;;14.80;13.00;;;;;;;22.06;63.27;98737.19;5107547;28;20048;-78
2023/09/13 02:27:55;;;;;;;12.93;11.75;;;;;;;21.98;64.16;98740.75;5107693;28;20062;-78
2023/09/13 02:30:23;;;;;;;12.95;11.68;;;;;;;22.03;63.44;98741.09;5107461;28;20059;-79
2023/09/13 02:32:50;;;;;;;13.23;11.95;;;;;;;22.06;62.85;98745.28;5090303;28;20032;-78
2023/09/13 02:35:18;;;;;;;13.35;11.88;;;;;;;22.09;63.05;98744.94;5107572;28;20068;-78
2023/09/13 02:37:46;;;;;;;12.55;11.27;;;;;;;21.77;62.88;98725.09;5107174;28;20094;-78
2023/09/13 02:40:12;;;;;;;13.50;11.70;;;;;;;22.00;63.28;98757.63;5107588;28;20044;-78
2023/09/13 02:42:39;;;;;;;12.50;11.43;;;;;;;21.91;63.24;98757.81;5107637;28;20082;-78
2023/09/13 02:45:07;;;;;;;13.23;11.88;;;;;;;21.90;63.71;98754.28;5106263;28;20044;-79
2023/09/13 02:47:34;;;;;;;12.15;11.05;;;;;;;21.91;64.21;98750.56;5107342;28;20089;-78
2023/09/13 02:50:01;;;;;;;11.98;10.88;;;;;;;21.77;63.67;98729.66;5107297;28;20098;-79
2023/09/13 02:52:30;;;;;;;11.73;10.73;;;;;;;21.72;64.62;98727.47;5106577;28;20270;-79
2023/09/13 02:54:57;;;;;;;13.40;11.82;;;;;;;21.87;64.12;98764.56;5106165;28;20036;-79
2023/09/13 02:57:24;;;;;;;12.68;11.55;;;;;;;21.86;63.59;98760.19;5107002;28;20182;-79
2023/09/13 02:59:51;;;;;;;12.80;11.45;;;;;;;21.83;64.38;98760.50;5106763;28;20294;-79
2023/09/13 03:02:18;;;;;;;11.80;10.68;;;;;;;21.56;63.32;98716.69;5107097;28;20211;-78
2023/09/13 03:04:44;;;;;;;12.55;11.18;;;;;;;21.85;63.47;98762.03;5107685;28;20051;-78
2023/09/13 03:07:12;;;;;;;12.55;11.25;;;;;;;21.72;63.75;98740.94;5107333;28;20093;-78
2023/09/13 03:09:41;;;;;;;12.35;10.88;;;;;;;21.82;64.31;98756.13;5107350;28;20048;-78
2023/09/13 03:12:08;;;;;;;12.10;11.00;;;;;;;21.80;63.80;98756.31;5106370;28;20115;-79
2023/09/13 03:14:35;;;;;;;15.00;11.85;;;;;;;21.64;64.44;98735.56;5107246;28;20047;-79
2023/09/13 03:17:02;;;;;;;13.57;12.32;;;;;;;21.75;64.12;98754.09;5107481;28;20039;-78
2023/09/13 03:19:30;;;;;;;12.88;11.52;;;;;;;21.38;64.26;98700.69;5107583;28;20285;-78
2023/09/13 03:21:57;;;;;;;13.75;12.10;;;;;;;21.39;63.81;98709.63;5107469;28;20055;-79
2023/09/13 03:24:24;;;;;;;13.52;12.23;;;;;;;21.68;65.23;98757.63;5106763;28;20052;-78
2023/09/13 03:26:52;;;;;;;15.23;11.80;;;;;;;21.54;65.30;98720.56;5106489;28;20035;-79
2023/09/13 03:29:19;;;;;;;13.90;11.57;;;;;;;21.70;64.58;98755.59;5106395;28;20056;-79
2023/09/13 03:31:46;;;;;;;13.32;12.02;;;;;;;21.68;65.31;98755.78;5107132;28;20036;-79
2023/09/13 03:34:12;;;;;;;15.02;13.43;;;;;;;21.51;65.16;98729.00;5106832;28;20230;-79
2023/09/13 03:36:41;;;;;;;13.18;11.98;;;;;;;21.69;64.82;98764.72;5104771;28;20056;-78
2023/09/13 03:39:07;;;;;;;13.68;12.27;;;;;;;21.16;65.15;98668.19;5106724;28;20036;-79
2023/09/13 03:41:34;;;;;;;13.63;12.10;;;;;;;21.46;65.12;98738.44;5105503;28;20046;-78
2023/09/13 03:44:03;;;;;;;13.73;12.43;;;;;;;21.60;65.28;98768.41;5106063;28;20047;-78
2023/09/13 03:46:30;;;;;;;12.98;11.75;;;;;;;21.60;65.63;98763.03;5106608;28;20040;-78
2023/09/13 03:48:57;;;;;;;13.50;12.05;;;;;;;21.52;65.28;98760.34;5106619;28;20097;-78
2023/09/13 03:53:41;;;;;;;12.07;10.98;;;;;;;21.49;64.50;98761.50;5125799;27;20605;-78
2023/09/13 03:56:08;;;;;;;14.15;11.77;;;;;;;21.42;65.04;98760.50;5124037;28;20055;-78
2023/09/13 03:58:35;;;;;;;13.07;11.65;;;;;;;21.25;65.04;98732.69;5124399;28;20097;-79
2023/09/13 04:01:04;;;;;;;17.20;12.70;;;;;;;21.23;65.29;98723.09;5124601;28;20039;-78
2023/09/13 04:03:32;;;;;;;12.80;11.52;;;;;;;21.38;64.07;98745.66;5124858;28;20051;-79
2023/09/13 04:05:59;;;;;;;13.25;11.90;;;;;;;21.02;64.27;98699.28;5124477;28;20050;-78
2023/09/13 04:08:26;;;;;;;13.02;11.85;;;;;;;21.36;64.48;98748.53;5123478;28;20081;-78
2023/09/13 04:10:54;;;;;;;12.55;11.02;;;;;;;21.34;64.08;98736.22;5124066;28;20048;-78
2023/09/13 04:13:21;;;;;;;13.07;11.75;;;;;;;20.70;64.41;98644.38;5123552;28;20063;-78
2023/09/13 04:15:48;;;;;;;12.70;11.50;;;;;;;21.36;64.38;98742.31;5123710;28;20036;-78
2023/09/13 04:18:15;;;;;;;11.32;10.23;;;;;;;21.35;63.55;98751.41;5123268;28;20258;-78
2023/09/13 04:20:44;;;;;;;12.38;11.27;;;;;;;20.92;63.89;98693.22;5122932;28;20040;-78
2023/09/13 04:23:11;;;;;;;12.23;10.95;;;;;;;21.32;63.71;98751.72;5122252;28;20055;-78
2023/09/13 04:25:37;;;;;;;12.98;11.77;;;;;;;21.00;65.51;98747.94;5122884;28;20093;-77
2023/09/13 04:28:06;;;;;;;12.52;11.23;;;;;;;21.13;64.84;98758.28;5122921;28;20047;-76
2023/09/13 04:30:33;;;;;;;11.93;10.80;;;;;;;21.20;64.15;98756.59;5122057;28;20295;-77
2023/09/13 04:33:00;;;;;;;13.13;11.82;;;;;;;21.19;64.14;98759.47;5121931;28;20101;-77
2023/09/13 04:35:27;;;;;;;13.18;11.07;;;;;;;21.19;64.62;98754.06;5122972;28;20043;-77
2023/09/13 04:37:55;;;;;;;13.18;11.98;;;;;;;20.71;64.20;98691.00;5123520;28;20035;-79
2023/09/13 04:40:22;;;;;;;12.93;11.65;;;;;;;21.10;65.04;98759.44;5122044;28;20043;-77
2023/09/13 04:42:54;;;;;;;12.63;11.45;;;;;;;21.17;64.05;98758.78;5122611;28;20043;-77
2023/09/13 04:45:23;;;;;;;12.00;10.45;;;;;;;21.16;64.48;98757.94;5122887;28;20300;-77
2023/09/13 04:47:50;;;;;;;11.90;10.70;;;;;;;21.13;64.29;98760.97;5122763;28;20203;-78
2023/09/13 04:50:17;;;;;;;13.20;11.77;;;;;;;21.13;64.33;98764.50;5122435;28;20114;-78
2023/09/13 04:52:43;;;;;;;12.70;11.50;;;;;;;21.16;63.71;98768.72;5123421;28;20117;-78
2023/09/13 04:55:10;;;;;;;12.70;11.60;;;;;;;21.12;64.64;98768.22;5122727;28;20043;-78
2023/09/13 04:57:37;;;;;;;13.50;12.20;;;;;;;21.08;64.31;98774.94;5123797;28;20043;-78
2023/09/13 05:00:07;;;;;;;13.00;11.80;;;;;;;20.80;64.34;98728.56;5124638;28;20105;-78
2023/09/13 05:02:35;;;;;;;14.15;12.75;;;;;;;21.11;64.03;98771.06;5122733;28;20119;-78
2023/09/13 05:05:02;;;;;;;15.18;12.98;;;;;;;20.95;64.13;98763.75;5109376;28;20048;-77
2023/09/13 05:07:30;;;;;;;14.20;12.77;;;;;;;21.14;64.08;98793.13;5109157;28;20046;-78
2023/09/13 05:09:57;;;;;;;13.38;11.98;;;;;;;21.13;64.31;98801.38;5108100;28;20043;-78
2023/09/13 05:12:24;;;;;;;15.50;12.32;;;;;;;21.11;64.32;98798.00;5106508;28;20046;-78
2023/09/13 05:14:51;;;;;;;12.68;11.57;;;;;;;21.06;64.76;98798.50;5107369;28;20219;-79
2023/09/13 05:17:18;;;;;;;13.07;11.77;;;;;;;21.06;64.86;98797.66;5107707;28;20048;-79
2023/09/13 05:19:48;;;;;;;14.23;12.82;;;;;;;21.06;64.98;98798.50;5106838;28;20292;-78
2023/09/13 05:22:15;;;;;;;16.10;12.63;;;;;;;21.07;64.64;98810.13;5107858;28;20089;-79
2023/09/13 05:24:42;;;;;;;13.35;12.02;;;;;;;21.05;64.43;98806.75;5106937;28;20039;-79
2023/09/13 05:27:09;;;;;;;12.63;11.35;;;;;;;21.03;65.05;98878.81;5107746;28;20094;-79
2023/09/13 05:29:35;;;;;;;13.55;12.15;;;;;;;21.02;64.85;98820.53;5107962;28;20134;-79
2023/09/13 05:32:02;;;;;;;15.02;11.57;;;;;;;21.07;64.82;98823.59;5106519;28;20040;-79
2023/09/13 05:34:32;;;;;;;14.80;12.95;;;;;;;21.06;65.61;98821.91;5107781;28;20070;-78
2023/09/13 05:37:00;;;;;;;13.75;12.38;;;;;;;21.08;65.81;98819.91;5106500;28;20050;-78
2023/09/13 05:39:28;;;;;;;14.15;12.75;;;;;;;20.48;64.94;98723.06;5106875;28;20106;-79
2023/09/13 05:41:57;;;;;;;13.43;12.13;;;;;;;20.82;65.47;98774.16;5107604;28;20051;-78
2023/09/13 05:44:25;;;;;;;13.98;12.45;;;;;;;21.11;66.17;98831.19;5106303;28;20044;-78
2023/09/13 05:46:52;;;;;;;14.50;13.00;;;;;;;20.99;65.36;98807.38;5106248;28;20222;-78
2023/09/13 05:49:19;;;;;;;15.98;14.43;;;;;;;21.14;65.85;98830.88;5107078;28;20327;-78
2023/09/13 05:51:46;;;;;;;14.45;13.18;;;;;;;21.13;66.56;98829.19;5106567;28;20044;-78
2023/09/13 05:54:14;;;;;;;15.95;14.43;;;;;;;20.83;65.76;98783.94;5106336;28;20222;-78
2023/09/13 05:56:42;;;;;;;14.73;13.20;;;;;;;21.17;66.19;98834.22;5106970;28;20055;-78
2023/09/13 05:59:09;;;;;;;14.73;13.30;;;;;;;21.21;65.81;98840.97;5105651;28;20040;-78
2023/09/13 06:01:37;;;;;;;14.30;12.80;;;;;;;21.23;65.84;98849.75;5106488;28;20048;-79
2023/09/13 06:04:03;;;;;;;15.35;13.07;;;;;;;21.20;66.73;98850.91;5107362;28;20186;-79
2023/09/13 06:06:30;;;;;;;14.10;12.80;;;;;;;21.22;66.11;98848.91;5108134;28;20067;-79
2023/09/13 06:08:57;;;;;;;14.82;13.20;;;;;;;21.17;65.92;98845.84;5108699;28;20051;-78
2023/09/13 06:11:25;;;;;;;15.98;12.82;;;;;;;21.19;66.13;98849.22;5107260;28;20055;-79
2023/09/13 06:13:54;;;;;;;16.48;14.93;;;;;;;21.02;65.65;98810.63;5107181;28;20044;-79
2023/09/13 06:16:21;;;;;;;14.15;12.85;;;;;;;21.29;65.23;98846.41;5105650;28;20165;-79
2023/09/13 06:18:47;;;;;;;16.17;14.55;;;;;;;21.23;65.46;98850.59;5106514;28;20051;-79
2023/09/13 06:21:14;;;;;;;14.52;13.18;;;;;;;21.26;65.97;98847.56;5105881;28;20042;-79
2023/09/13 06:23:41;;;;;;;15.35;13.98;;;;;;;21.14;65.64;98841.63;5105995;28;20058;-78
2023/09/13 06:26:09;;;;;;;18.75;14.00;;;;;;;21.34;65.15;98862.91;5106063;28;20043;-78
2023/09/13 06:28:39;;;;;;;15.52;13.23;;;;;;;21.37;65.34;98854.50;5105334;28;20206;-78
2023/09/13 06:31:06;;;;;;;17.05;13.00;;;;;;;21.40;65.18;98855.00;5106758;28;20040;-78
2023/09/13 06:33:33;;;;;;;13.80;12.50;;;;;;;21.41;65.65;98848.59;5106251;28;20040;-79
2023/09/13 06:35:59;;;;;;;17.55;13.13;;;;;;;21.45;65.98;98857.22;5105360;28;20288;-79
2023/09/13 06:38:26;;;;;;;14.77;13.43;;;;;;;20.98;65.06;98778.75;5105902;28;20048;-79
2023/09/13 06:40:53;;;;;;;15.73;14.13;;;;;;;21.24;65.03;98808.31;5105344;28;20036;-78
2023/09/13 06:43:19;;;;;;;13.98;12.77;;;;;;;21.54;65.20;98855.38;5105364;28;20036;-78
2023/09/13 06:45:48;;;;;;;14.07;12.77;;;;;;;21.50;64.85;98857.56;5105650;28;20301;-79
2023/09/13 06:48:16;;;;;;;14.50;12.35;;;;;;;21.57;65.31;98853.19;5106524;28;20059;-79
2023/09/13 06:50:42;;;;;;;14.00;12.50;;;;;;;21.61;65.55;98859.09;5107304;28;20040;-79
2023/09/13 06:53:09;;;;;;;13.18;11.27;;;;;;;21.61;65.02;98861.78;5105914;28;20051;-79
2023/09/13 06:55:36;;;;;;;13.52;12.23;;;;;;;21.65;65.38;98857.75;5107577;28;20219;-79
2023/09/13 06:58:06;;;;;;;13.55;12.25;;;;;;;21.63;63.37;98857.91;5107229;28;20040;-79
2023/09/13 07:00:33;;;;;;;12.25;11.13;;;;;;;21.33;64.57;98793.84;5108110;28;20078;-79
2023/09/13 07:03:03;;;;;;;12.15;10.93;;;;;;;;;;5107435;28;20052;-79
2023/09/13 07:05:30;;;;;;;12.20;11.00;;;;;;;21.86;64.32;98852.72;5106941;28;20231;-79
2023/09/13 07:07:58;;;;;;;12.15;10.95;;;;;;;21.93;64.13;98856.44;5108231;28;20085;-79
2023/09/13 07:10:24;;;;;;;12.35;10.75;;;;;;;21.43;63.58;98765.72;5106077;28;20048;-79
2023/09/13 07:12:51;;;;;;;11.25;10.23;;;;;;;22.03;62.56;98853.56;5106157;28;20089;-79
2023/09/13 07:15:18;;;;;;;10.25;9.25;;;;;;;22.12;63.18;98857.09;5106771;28;20047;-79
2023/09/13 07:17:45;;;;;;;9.80;8.90;;;;;;;22.17;63.29;98846.66;5107083;28;20058;-79
2023/09/13 07:20:13;;;;;;;10.65;9.65;;;;;;;22.01;63.41;98807.03;5105825;28;20048;-79
2023/09/13 07:22:40;;;;;;;9.70;8.80;;;;;;;22.34;61.69;98848.31;5105564;28;20043;-79
2023/09/13 07:25:08;;;;;;;11.32;10.15;;;;;;;22.37;61.50;98848.81;5106682;28;20048;-78
2023/09/13 07:27:34;;;;;;;11.95;9.15;;;;;;;22.47;61.56;98847.81;5107524;28;20036;-79
2023/09/13 07:30:02;;;;;;;10.15;8.70;;;;;;;22.47;60.44;98834.28;5107210;28;20044;-78
2023/09/13 07:32:28;;;;;;;13.35;9.77;;;;;;;22.50;60.12;98844.75;5108192;28;20062;-79
2023/09/13 07:34:55;;;;;;;9.55;8.13;;;;;;;22.21;60.49;98794.84;5108053;28;20040;-79
2023/09/13 07:37:26;;;;;;;9.52;8.63;;;;;;;22.64;59.61;98857.56;5107739;28;20304;-79
2023/09/13 07:39:53;;;;;;;9.30;8.40;;;;;;;22.60;60.07;98821.13;5107505;28;20055;-79
2023/09/13 07:42:19;;;;;;;8.65;7.85;;;;;;;22.76;59.57;98848.06;5108525;28;20101;-79
2023/09/13 07:44:46;;;;;;;9.05;8.02;;;;;;;22.51;58.83;98808.63;5107894;28;20040;-78
2023/09/13 07:47:13;;;;;;;11.18;7.53;;;;;;;22.88;56.95;98859.34;5140923;27;20089;-79
2023/09/13 07:49:40;;;;;;;8.35;7.55;;;;;;;22.45;56.04;98785.88;5107313;28;20111;-79
2023/09/13 07:52:07;;;;;;;10.38;7.95;;;;;;;22.88;57.05;98852.09;5105825;28;20063;-79
2023/09/13 07:54:35;;;;;;;8.98;8.07;;;;;;;22.95;55.81;98855.78;5108261;28;20111;-79
2023/09/13 07:57:02;;;;;;;7.65;6.47;;;;;;;23.01;55.65;98856.94;5108319;28;20226;-79
2023/09/13 07:59:29;;;;;;;8.25;7.28;;;;;;;22.88;55.69;98826.94;5108710;28;20124;-79
2023/09/13 08:01:56;;;;;;;8.88;7.03;;;;;;;23.04;55.00;98851.16;5112432;28;20052;-79
2023/09/13 08:04:22;;;;;;;7.85;7.00;;;;;;;23.15;54.75;98866.16;5113064;28;20040;-79
2023/09/13 08:06:49;;;;;;;7.95;7.15;;;;;;;23.18;55.07;98847.72;5111238;28;20054;-79
2023/09/13 08:09:16;;;;;;;7.35;6.65;;;;;;;22.90;55.22;98793.31;5109022;28;20047;-79
2023/09/13 08:11:47;;;;;;;8.15;7.03;;;;;;;23.32;54.85;98916.44;5107761;28;20035;-79
2023/09/13 08:14:13;;;;;;;7.40;6.70;;;;;;;23.13;54.70;98812.28;5107455;28;20040;-79
2023/09/13 08:16:40;;;;;;;9.60;7.07;;;;;;;23.09;53.47;98810.94;5108155;28;20047;-79
2023/09/13 08:19:08;;;;;;;10.20;6.32;;;;;;;23.51;53.58;98847.56;5107387;28;20208;-79
2023/09/13 08:21:35;;;;;;;7.85;6.47;;;;;;;23.58;52.89;98845.81;5107361;28;20035;-79
2023/09/13 08:24:03;;;;;;;6.65;5.70;;;;;;;23.66;52.84;98845.75;5107124;28;20084;-79
2023/09/13 08:26:30;;;;;;;6.40;5.78;;;;;;;23.77;53.16;98848.03;5107199;28;20044;-80
2023/09/13 08:29:03;;;;;;;7.78;6.35;;;;;;;23.89;52.35;98854.72;5106534;28;20040;-79
2023/09/13 08:31:29;;;;;;;7.15;5.50;;;;;;;23.95;52.54;98853.97;5106641;28;20048;-80
2023/09/13 08:33:56;;;;;;;8.70;7.38;;;;;;;23.78;51.37;98811.84;5106029;28;20285;-79
2023/09/13 08:36:23;;;;;;;6.22;5.45;;;;;;;24.13;52.79;98856.41;5107104;28;20051;-80
2023/09/13 08:38:49;;;;;;;6.40;5.75;;;;;;;24.22;51.33;98870.69;5107564;28;20293;-79
2023/09/13 08:41:17;;;;;;;8.25;6.15;;;;;;;24.29;50.50;98852.69;5110758;28;20044;-80
2023/09/13 08:43:44;;;;;;;7.28;5.43;;;;;;;24.31;50.13;98859.59;5111339;28;20188;-80
2023/09/13 08:46:14;;;;;;;9.63;5.95;;;;;;;24.28;49.68;98859.13;5111149;28;20052;-79
2023/09/13 08:48:42;;;;;;;7.13;5.57;;;;;;;24.28;49.35;98869.97;5111512;28;20044;-79
2023/09/13 08:51:10;;;;;;;5.75;4.97;;;;;;;24.28;49.44;98859.13;5111050;28;20044;-79
2023/09/13 08:53:38;;;;;;;10.15;5.45;;;;;;;24.40;50.39;98868.50;5110557;28;20052;-80
2023/09/13 08:56:06;;;;;;;6.57;5.28;;;;;;;24.43;48.98;98857.28;5109775;28;20372;-79
2023/09/13 08:58:33;;;;;;;6.18;4.95;;;;;;;24.48;48.86;98852.16;5109963;28;20048;-79
2023/09/13 09:01:04;;;;;;;5.85;4.80;;;;;;;24.59;49.50;98845.44;5109396;28;20051;-79
2023/09/13 09:03:34;;;;;;;7.03;4.93;;;;;;;24.75;48.56;98847.16;5110322;28;20070;-80
2023/09/13 09:06:02;;;;;;;9.27;6.80;;;;;;;24.98;48.81;98845.16;5110493;28;20051;-80
2023/09/13 09:08:29;;;;;;;7.55;6.00;;;;;;;25.21;48.49;98854.03;5108996;28;20047;-79
2023/09/13 09:10:59;;;;;;;7.68;6.18;;;;;;;25.31;48.16;98858.31;5108520;28;20150;-78
2023/09/13 09:13:26;;;;;;;8.15;5.47;;;;;;;25.22;47.20;98855.72;5107560;28;20225;-79
2023/09/13 09:15:56;;;;;;;7.65;5.80;;;;;;;25.23;47.04;98843.00;5107312;28;20250;-78
2023/09/13 09:18:24;;;;;;;7.63;5.28;;;;;;;25.20;46.53;98830.66;5108192;28;20049;-78
2023/09/13 09:20:53;;;;;;;6.22;5.30;;;;;;;24.38;46.85;98680.13;5108667;28;20085;-79
2023/09/13 09:23:21;;;;;;;6.03;5.40;;;;;;;25.40;47.16;98839.06;5108518;28;20044;-78
2023/09/13 09:25:51;;;;;;;7.35;5.30;;;;;;;25.48;47.21;98836.22;5108145;28;20036;-79
2023/09/13 09:28:17;;;;;;;6.20;5.50;;;;;;;25.42;46.34;98817.16;5107331;28;20048;-79
2023/09/13 09:30:45;;;;;;;6.97;5.50;;;;;;;25.67;45.09;98834.75;5108551;28;20050;-78
2023/09/13 09:33:12;;;;;;;7.72;6.60;;;;;;;25.77;45.41;98838.00;5108762;28;20074;-78
2023/09/13 09:35:39;;;;;;;7.10;6.40;;;;;;;25.98;45.31;98830.91;5108482;28;20040;-79
2023/09/13 09:38:21;;;;;;;6.97;6.35;;;;;;;25.90;46.18;98812.84;5108554;28;20039;-79
2023/09/13 09:40:48;;;;;;;8.27;7.38;;;;;;;26.14;45.27;98836.88;5108043;28;20131;-79
2023/09/13 09:43:15;;;;;;;7.13;6.43;;;;;;;26.26;46.05;98839.91;5108353;28;20097;-79
2023/09/13 09:45:42;;;;;;;6.65;5.93;;;;;;;26.25;45.83;98843.66;5108351;28;20106;-78
2023/09/13 09:48:13;;;;;;;6.00;5.40;;;;;;;26.16;45.06;98844.84;5108141;28;20113;-78
2023/09/13 09:50:45;;;;;;;5.95;5.35;;;;;;;26.11;45.27;98842.72;5107435;28;20231;-78
2023/09/13 09:53:14;;;;;;;9.32;6.45;;;;;;;26.11;45.71;98848.13;5108276;28;20111;-78
2023/09/13 09:55:42;;;;;;;7.05;6.35;;;;;;;26.07;45.03;98841.41;5108455;28;20048;-79
2023/09/13 09:58:09;;;;;;;6.80;6.07;;;;;;;26.09;45.00;98844.78;5108678;28;20044;-78
2023/09/13 10:00:49;;;;;;;7.55;5.80;;;;;;;26.14;45.09;98849.63;5108026;28;20044;-79
2023/09/13 10:03:20;;;;;;;7.35;5.90;;;;;;;26.18;44.94;98837.31;5108184;28;20051;-78
2023/09/13 10:05:54;;;;;;;6.30;5.70;;;;;;;25.63;45.12;98734.94;5106958;28;20051;-78
2023/09/13 10:08:37;;;;;;;6.97;6.07;;;;;;;26.28;44.79;98840.53;5106944;28;20097;-78
2023/09/13 10:11:04;;;;;;;9.15;6.38;;;;;;;26.35;45.75;98843.31;5107661;28;20044;-79
2023/09/13 10:13:33;;;;;;;7.30;6.60;;;;;;;26.06;44.31;98781.88;5107153;28;20044;-79
2023/09/13 10:16:01;;;;;;;7.72;6.93;;;;;;;26.20;44.97;98786.38;5108765;28;20133;-80
2023/09/13 10:18:31;;;;;;;7.10;6.28;;;;;;;26.05;45.21;98789.19;5107201;28;20044;-78
2023/09/13 10:20:58;;;;;;;6.85;5.70;;;;;;;26.46;44.96;98842.75;5106479;28;20048;-78
2023/09/13 10:23:30;;;;;;;7.25;5.88;;;;;;;26.34;43.95;98785.41;5108313;28;20062;-79
2023/09/13 10:26:02;;;;;;;8.88;5.97;;;;;;;26.42;44.04;98796.13;5108160;28;20115;-78
2023/09/13 10:28:35;;;;;;;6.85;5.45;;;;;;;26.54;44.48;98853.47;5107039;28;20044;-78
2023/09/13 10:31:04;;;;;;;5.30;4.80;;;;;;;26.48;43.93;98833.38;5108049;28;20250;-78
2023/09/13 10:33:33;;;;;;;6.05;4.68;;;;;;;26.47;43.52;98836.28;5107245;28;20043;-78
2023/09/13 10:36:02;;;;;;;5.40;4.75;;;;;;;26.45;43.78;98833.75;5107696;28;20182;-78
2023/09/13 10:38:40;;;;;;;6.03;5.43;;;;;;;26.48;44.20;98830.66;5109542;28;20311;-81
2023/09/13 10:41:17;;;;;;;7.10;4.80;;;;;;;26.48;44.15;98838.81;5110176;28;20039;-78
2023/09/13 10:43:44;;;;;;;5.47;4.93;;;;;;;26.44;44.04;98842.94;5108463;28;20048;-78
2023/09/13 10:46:11;;;;;;;4.80;4.30;;;;;;;26.45;43.88;98838.38;5108747;28;20243;-78
2023/09/13 10:48:39;;;;;;;10.45;4.57;;;;;;;26.06;44.36;98777.28;5109447;28;20047;-79
2023/09/13 10:51:08;;;;;;;5.38;4.13;;;;;;;26.44;43.73;98836.69;5106596;28;20043;-79
2023/09/13 10:53:37;;;;;;;4.80;4.30;;;;;;;25.72;44.14;98722.91;5107446;28;20075;-79
2023/09/13 10:56:04;;;;;;;4.97;4.35;;;;;;;26.37;44.41;98828.47;5108328;28;20040;-79
2023/09/13 10:58:34;;;;;;;7.43;5.13;;;;;;;26.39;44.83;98834.56;5107848;28;20288;-80
2023/09/13 11:01:00;;;;;;;6.38;5.28;;;;;;;26.43;43.78;98824.13;5106759;28;20062;-79
2023/09/13 11:03:28;;;;;;;8.02;5.88;;;;;;;26.42;43.81;98828.72;5108458;28;20055;-79
2023/09/13 11:05:58;;;;;;;7.43;5.05;;;;;;;26.22;44.06;98801.44;5108068;28;20062;-80
2023/09/13 11:08:29;;;;;;;6.85;5.40;;;;;;;26.43;44.33;98824.97;5108622;28;20040;-79
2023/09/13 11:10:56;;;;;;;7.75;5.20;;;;;;;26.08;44.11;98772.50;5105333;28;20069;-78
2023/09/13 11:13:30;;;;;;;6.45;5.57;;;;;;;26.41;43.97;98827.06;5108287;28;20043;-80
2023/09/13 11:16:03;;;;;;;;;;;;;;;26.42;44.31;98828.72;5108181;28;20055;-79
2023/09/13 11:18:32;;;;;;;5.85;4.55;;;;;;;26.43;43.94;98824.13;5107899;28;19916;-80
2023/09/13 11:20:59;;;;;;;5.40;4.75;;;;;;;26.14;44.39;98785.28;5108205;28;20206;-80
2023/09/13 11:23:26;;;;;;;6.05;4.95;;;;;;;26.48;43.83;98825.22;5106389;28;20329;-79
2023/09/13 11:25:54;;;;;;;7.88;4.82;;;;;;;26.46;44.13;98848.19;5107410;28;20040;-80
2023/09/13 11:28:43;;;;;;;5.45;4.68;;;;;;;26.21;43.87;98807.06;5107671;28;20058;-80
2023/09/13 11:31:17;;;;;;;5.15;4.65;;;;;;;26.38;43.67;98838.31;5106699;28;20078;-80